Time;durP1;ratioP1;P1;durP2;ratioP2;P2;SDS_P1;SDS_P2;PMS_P1;PMS_P2;Temp;Humidity;BMP_temperature;BMP_pressure;BME280_temperature;BME280_humidity;BME280_pressure;Samples;Min_cycle;Max_cycle;Signal;HPM_P1;HPM_P2
2023/03/21 00:01:35;;;;;;;16.02;13.95;;;10.60;95.80;;;;;;5033905;28;20517;-69
2023/03/21 00:04:01;;;;;;;15.88;13.82;;;10.60;95.70;;;;;;5033745;28;20037;-69
2023/03/21 00:06:27;;;;;;;17.77;14.65;;;10.60;95.60;;;;;;5016044;28;20037;-69
2023/03/21 00:08:53;;;;;;;18.40;15.35;;;10.60;95.50;;;;;;5033654;28;20037;-69
2023/03/21 00:11:18;;;;;;;18.50;14.93;;;10.60;95.50;;;;;;5033704;28;20038;-69
2023/03/21 00:13:44;;;;;;;18.77;15.27;;;10.50;95.50;;;;;;5033373;28;20389;-69
2023/03/21 00:16:14;;;;;;;18.35;15.60;;;10.50;95.50;;;;;;5033557;28;20409;-69
2023/03/21 00:18:45;;;;;;;18.60;15.18;;;10.50;95.50;;;;;;5033414;28;20079;-69
2023/03/21 00:21:16;;;;;;;17.77;14.35;;;10.50;95.50;;;;;;5033595;28;20044;-69
2023/03/21 00:23:43;;;;;;;20.77;15.07;;;10.50;95.40;;;;;;5033399;28;20109;-69
2023/03/21 00:26:09;;;;;;;20.85;14.93;;;10.50;95.50;;;;;;5033316;28;20113;-70
2023/03/21 00:28:37;;;;;;;17.83;15.45;;;10.50;95.40;;;;;;5032925;28;20071;-69
2023/03/21 00:31:03;;;;;;;20.10;16.08;;;10.40;95.40;;;;;;5033040;28;20038;-69
2023/03/21 00:33:28;;;;;;;18.08;14.38;;;10.40;95.60;;;;;;5033194;28;20037;-69
2023/03/21 00:35:55;;;;;;;16.20;13.55;;;10.40;95.30;;;;;;5033110;28;20116;-69
2023/03/21 00:38:21;;;;;;;16.17;13.07;;;10.40;95.20;;;;;;5033070;28;20044;-69
2023/03/21 00:40:47;;;;;;;15.65;12.95;;;10.30;95.10;;;;;;5033191;28;20025;-69
2023/03/21 00:43:16;;;;;;;16.73;14.18;;;10.30;95.10;;;;;;5033224;28;20041;-69
2023/03/21 00:45:42;;;;;;;19.02;14.27;;;10.30;95.20;;;;;;5033187;28;20053;-69
2023/03/21 00:48:09;;;;;;;16.90;13.25;;;10.30;95.20;;;;;;5032952;28;20049;-69
2023/03/21 00:50:37;;;;;;;15.17;13.50;;;10.30;95.20;;;;;;5033048;28;20070;-69
2023/03/21 00:53:03;;;;;;;19.20;14.05;;;10.30;95.20;;;;;;5033023;28;20044;-69
2023/03/21 00:55:29;;;;;;;15.18;12.85;;;10.20;95.20;;;;;;5032332;28;20037;-69
2023/03/21 00:57:55;;;;;;;20.33;14.32;;;10.20;95.40;;;;;;5029461;28;20520;-70
2023/03/21 01:00:21;;;;;;;17.20;13.23;;;10.20;95.30;;;;;;5030140;28;20554;-69
2023/03/21 01:02:56;;;;;;;16.73;14.00;;;10.20;95.40;;;;;;5032855;28;20489;-69
2023/03/21 01:08:29;;;;;;;17.70;13.65;;;10.20;95.40;;;;;;4991156;28;20045;-69
2023/03/21 01:10:55;;;;;;;17.80;13.43;;;10.20;95.40;;;;;;5024462;28;20041;-69
2023/03/21 01:13:23;;;;;;;19.53;13.70;;;10.20;95.40;;;;;;5033035;28;20243;-69
2023/03/21 01:15:53;;;;;;;17.83;14.25;;;10.10;95.30;;;;;;5032842;28;20477;-70
2023/03/21 01:18:21;;;;;;;16.37;14.03;;;10.10;95.40;;;;;;5032778;28;20048;-69
2023/03/21 01:20:47;;;;;;;18.73;14.47;;;10.10;95.30;;;;;;5032796;28;20033;-69
2023/03/21 01:23:14;;;;;;;19.33;14.48;;;10.10;95.60;;;;;;5032414;28;20537;-69
2023/03/21 01:25:40;;;;;;;16.70;13.93;;;10.10;95.40;;;;;;5032436;28;20038;-69
2023/03/21 01:28:06;;;;;;;16.03;14.30;;;10.00;95.30;;;;;;5032651;28;20091;-69
2023/03/21 01:30:33;;;;;;;17.20;13.50;;;10.00;95.30;;;;;;5032788;28;20547;-69
2023/03/21 01:32:58;;;;;;;16.73;13.53;;;10.00;95.30;;;;;;5032818;28;20052;-69
2023/03/21 01:35:24;;;;;;;16.37;12.67;;;10.00;95.30;;;;;;5032725;28;20037;-69
2023/03/21 01:37:50;;;;;;;17.57;13.63;;;10.00;95.30;;;;;;5032601;28;20063;-69
2023/03/21 01:40:26;;;;;;;14.17;12.37;;;9.90;95.20;;;;;;5032714;28;20069;-69
2023/03/21 01:42:52;;;;;;;17.63;13.63;;;9.90;95.00;;;;;;5032649;28;20033;-69
2023/03/21 01:45:55;;;;;;;19.43;14.20;;;9.90;95.00;;;;;;5032459;28;20059;-69
2023/03/21 01:48:22;;;;;;;16.02;13.15;;;9.80;95.00;;;;;;5032584;28;20056;-69
2023/03/21 01:50:50;;;;;;;15.30;12.47;;;9.80;95.10;;;;;;5032427;28;20103;-69
2023/03/21 01:53:17;;;;;;;17.33;13.67;;;;;;;;;;5032181;28;20040;-69
2023/03/21 01:55:43;;;;;;;19.57;14.60;;;9.90;96.80;;;;;;5032588;28;20057;-69
2023/03/21 01:58:10;;;;;;;17.03;13.90;;;9.80;99.10;;;;;;5031315;28;20113;-69
2023/03/21 02:00:37;;;;;;;17.87;15.00;;;9.80;95.90;;;;;;5029743;28;20653;-70
2023/03/21 02:03:07;;;;;;;21.03;15.27;;;9.70;95.40;;;;;;5029703;28;20037;-69
2023/03/21 02:06:13;;;;;;;17.43;14.00;;;9.70;95.50;;;;;;5031046;28;20125;-69
2023/03/21 02:08:39;;;;;;;21.40;14.67;;;9.70;95.40;;;;;;4991034;28;20517;-69
2023/03/21 02:11:06;;;;;;;16.83;13.53;;;9.60;95.40;;;;;;5035982;28;20026;-69
2023/03/21 02:13:32;;;;;;;15.67;13.23;;;9.60;95.40;;;;;;5035714;28;20132;-69
2023/03/21 02:16:16;;;;;;;18.07;13.80;;;9.60;95.50;;;;;;5035656;28;20061;-69
2023/03/21 02:19:25;;;;;;;21.00;15.47;;;9.60;95.10;;;;;;5017820;28;20043;-69
2023/03/21 02:22:26;;;;;;;21.07;14.77;;;9.50;95.10;;;;;;4955015;28;20427;-69
2023/03/21 02:25:10;;;;;;;20.50;14.03;;;9.50;95.10;;;;;;5033973;28;20088;-70
2023/03/21 02:27:51;;;;;;;18.67;13.37;;;9.50;95.00;;;;;;5035299;28;20436;-69
2023/03/21 02:30:35;;;;;;;20.03;13.20;;;9.50;95.10;;;;;;5035272;28;20061;-69
2023/03/21 02:33:22;;;;;;;16.97;13.70;;;9.50;95.00;;;;;;5017585;28;20042;-69
2023/03/21 02:35:54;;;;;;;17.63;13.27;;;9.40;94.90;;;;;;5035008;28;20029;-69
2023/03/21 02:38:38;;;;;;;21.50;14.53;;;9.40;94.90;;;;;;5035462;28;20036;-69
2023/03/21 02:41:24;;;;;;;15.73;14.03;;;9.40;95.00;;;;;;5035421;28;20042;-69
2023/03/21 02:43:55;;;;;;;17.93;13.90;;;9.30;95.00;;;;;;5034873;28;20037;-69
2023/03/21 02:46:29;;;;;;;20.67;15.83;;;9.30;95.10;;;;;;5034902;28;20061;-69
2023/03/21 02:49:15;;;;;;;24.10;16.90;;;9.30;95.20;;;;;;5035130;28;20045;-69
2023/03/21 02:51:43;;;;;;;18.40;15.53;;;9.30;95.30;;;;;;5035122;28;20021;-69
2023/03/21 02:54:16;;;;;;;22.50;17.03;;;9.30;95.60;;;;;;5035248;28;20037;-69
2023/03/21 02:56:44;;;;;;;20.77;16.70;;;9.30;95.60;;;;;;5035160;28;20029;-69
2023/03/21 02:59:11;;;;;;;19.57;16.40;;;9.30;95.80;;;;;;5034964;28;20386;-69
2023/03/21 03:01:37;;;;;;;21.47;15.93;;;9.30;95.80;;;;;;5034983;28;20091;-69
2023/03/21 03:04:03;;;;;;;21.97;16.30;;;9.30;95.70;;;;;;5034812;28;20485;-69
2023/03/21 03:06:55;;;;;;;22.87;16.87;;;9.30;95.70;;;;;;5034881;28;20029;-69
2023/03/21 03:09:29;;;;;;;20.53;16.50;;;9.30;96.00;;;;;;5034842;28;20042;-70
2023/03/21 03:12:23;;;;;;;20.53;16.10;;;9.20;95.80;;;;;;5034867;28;20503;-69
2023/03/21 03:14:58;;;;;;;22.93;16.43;;;9.20;95.80;;;;;;5034842;28;20079;-70
2023/03/21 03:17:59;;;;;;;21.93;16.73;;;9.20;95.80;;;;;;5017046;28;20545;-70
2023/03/21 03:20:35;;;;;;;21.13;16.57;;;9.20;95.90;;;;;;5034063;28;20045;-69
2023/03/21 03:23:05;;;;;;;23.23;16.93;;;9.20;95.90;;;;;;5034589;28;20110;-69
2023/03/21 03:25:57;;;;;;;22.00;17.30;;;9.20;95.90;;;;;;5034364;28;20038;-69
2023/03/21 03:28:27;;;;;;;18.60;15.23;;;9.20;95.90;;;;;;5034695;28;20049;-69
2023/03/21 03:30:54;;;;;;;24.57;16.43;;;9.20;95.90;;;;;;5034565;28;20037;-69
2023/03/21 03:33:22;;;;;;;22.10;16.17;;;9.20;95.90;;;;;;5034367;28;20068;-69
2023/03/21 03:35:51;;;;;;;22.03;16.57;;;9.20;95.90;;;;;;5034320;28;20030;-69
2023/03/21 03:38:18;;;;;;;20.40;16.20;;;9.20;95.90;;;;;;5034231;28;20127;-69
2023/03/21 03:40:49;;;;;;;19.47;16.20;;;9.20;95.90;;;;;;5034391;28;20048;-69
2023/03/21 03:43:23;;;;;;;23.83;15.70;;;9.10;95.90;;;;;;5034417;28;20038;-69
2023/03/21 03:45:55;;;;;;;22.60;15.70;;;9.10;95.90;;;;;;5031586;28;20521;-69
2023/03/21 03:48:29;;;;;;;19.27;15.27;;;9.10;95.90;;;;;;5033927;28;20091;-69
2023/03/21 03:51:12;;;;;;;21.53;15.90;;;9.10;95.90;;;;;;5033823;28;20429;-69
2023/03/21 03:53:51;;;;;;;19.70;15.03;;;9.10;95.80;;;;;;5033980;28;20508;-69
2023/03/21 03:56:16;;;;;;;19.37;15.23;;;9.10;95.70;;;;;;5033997;28;20358;-69
2023/03/21 03:58:42;;;;;;;18.17;14.80;;;9.00;95.70;;;;;;5034292;28;20072;-69
2023/03/21 04:01:08;;;;;;;19.47;14.23;;;9.00;95.50;;;;;;5033862;28;20033;-69
2023/03/21 04:03:39;;;;;;;16.73;14.23;;;9.00;95.40;;;;;;5033726;28;20037;-69
2023/03/21 04:06:05;;;;;;;18.33;14.73;;;9.00;95.40;;;;;;5033878;28;20033;-69
2023/03/21 04:08:30;;;;;;;18.10;15.23;;;9.00;95.40;;;;;;5033586;28;20069;-69
2023/03/21 04:10:56;;;;;;;24.00;15.03;;;8.90;95.30;;;;;;5033808;28;20080;-69
2023/03/21 04:13:22;;;;;;;16.60;14.50;;;8.90;95.40;;;;;;5033717;28;20033;-69
2023/03/21 04:15:48;;;;;;;20.37;16.10;;;8.90;95.40;;;;;;5015912;28;20140;-69
2023/03/21 04:18:14;;;;;;;18.90;15.90;;;8.90;95.40;;;;;;5033411;28;20037;-69
2023/03/21 04:20:40;;;;;;;16.83;13.93;;;8.90;95.50;;;;;;5033364;28;20044;-69
2023/03/21 04:23:06;;;;;;;18.73;14.93;;;9.00;99.90;;;;;;5033531;28;20046;-69
2023/03/21 04:25:34;;;;;;;20.10;14.50;;;8.90;95.50;;;;;;5033392;28;20030;-69
2023/03/21 04:28:00;;;;;;;16.30;14.07;;;8.90;95.50;;;;;;5033327;28;20045;-69
2023/03/21 04:30:25;;;;;;;17.73;15.00;;;8.80;95.50;;;;;;5033273;28;20034;-69
2023/03/21 04:32:55;;;;;;;16.67;14.40;;;8.80;95.50;;;;;;5032987;28;20087;-69
2023/03/21 04:35:22;;;;;;;20.33;15.43;;;8.80;95.70;;;;;;5033373;28;20033;-70
2023/03/21 04:37:48;;;;;;;18.90;14.50;;;8.70;95.60;;;;;;5033142;28;20033;-69
2023/03/21 04:40:16;;;;;;;18.37;14.80;;;8.70;95.60;;;;;;5033302;28;20029;-69
2023/03/21 04:42:43;;;;;;;20.07;13.83;;;8.70;95.60;;;;;;5033560;28;20040;-69
2023/03/21 04:45:09;;;;;;;18.80;15.73;;;8.70;95.60;;;;;;5033161;28;20498;-69
2023/03/21 04:47:35;;;;;;;19.63;14.67;;;8.70;95.60;;;;;;5032900;28;20058;-69
2023/03/21 04:50:01;;;;;;;20.30;14.57;;;8.70;95.60;;;;;;5033070;28;20059;-69
2023/03/21 04:52:27;;;;;;;18.93;13.73;;;8.70;95.50;;;;;;5033075;28;20037;-69
2023/03/21 04:54:52;;;;;;;20.47;14.90;;;8.70;95.40;;;;;;5033100;28;20041;-69
2023/03/21 04:57:18;;;;;;;16.87;14.47;;;8.70;97.40;;;;;;5032897;28;20103;-69
2023/03/21 04:59:44;;;;;;;19.07;13.87;;;8.70;97.50;;;;;;5032850;28;20045;-69
2023/03/21 05:02:11;;;;;;;19.13;13.87;;;8.50;94.80;;;;;;5032996;28;20048;-69
2023/03/21 05:04:37;;;;;;;17.13;13.87;;;8.50;94.90;;;;;;5033027;28;20037;-69
2023/03/21 05:07:03;;;;;;;18.50;13.53;;;8.40;94.90;;;;;;5032776;28;20040;-69
2023/03/21 05:09:29;;;;;;;18.10;15.13;;;8.60;95.90;;;;;;5032838;28;20164;-69
2023/03/21 05:11:54;;;;;;;19.63;13.33;;;8.40;94.80;;;;;;5032834;28;20143;-69
2023/03/21 05:14:23;;;;;;;16.53;14.17;;;8.40;94.80;;;;;;5032361;28;20033;-69
2023/03/21 05:16:52;;;;;;;14.70;13.10;;;8.40;94.80;;;;;;5032612;28;20505;-69
2023/03/21 05:19:33;;;;;;;18.87;13.50;;;8.30;94.70;;;;;;5032649;28;20056;-69
2023/03/21 05:21:58;;;;;;;16.47;14.17;;;8.30;94.70;;;;;;5032828;28;20528;-70
2023/03/21 05:24:24;;;;;;;15.93;13.17;;;8.30;94.80;;;;;;5032774;28;20057;-69
2023/03/21 05:26:51;;;;;;;15.97;13.10;;;8.30;94.80;;;;;;5032510;28;20045;-69
2023/03/21 05:29:18;;;;;;;18.57;14.20;;;8.30;95.10;;;;;;5032778;28;20038;-69
2023/03/21 05:31:45;;;;;;;18.63;13.50;;;8.20;94.80;;;;;;5032611;28;20040;-69
2023/03/21 05:34:11;;;;;;;20.77;13.93;;;8.20;94.80;;;;;;5032686;28;20049;-70
2023/03/21 05:36:37;;;;;;;22.50;13.43;;;8.20;94.90;;;;;;5032631;28;20029;-69
2023/03/21 05:39:04;;;;;;;20.97;13.90;;;8.20;95.00;;;;;;5032734;28;20125;-69
2023/03/21 05:41:30;;;;;;;16.43;13.63;;;8.20;95.10;;;;;;5032440;28;20041;-69
2023/03/21 05:43:55;;;;;;;18.47;12.80;;;8.20;95.00;;;;;;5033058;28;20363;-69
2023/03/21 05:46:21;;;;;;;18.60;13.90;;;8.20;95.10;;;;;;5036300;28;20081;-69
2023/03/21 05:48:47;;;;;;;22.33;14.80;;;8.20;95.20;;;;;;5036252;28;20045;-69
2023/03/21 05:51:13;;;;;;;19.80;14.03;;;8.20;95.40;;;;;;5036326;28;20025;-69
2023/03/21 05:53:39;;;;;;;20.37;14.63;;;8.20;95.40;;;;;;5036213;28;20037;-69
2023/03/21 05:56:05;;;;;;;18.20;14.17;;;8.20;95.50;;;;;;5036157;28;20037;-69
2023/03/21 05:58:31;;;;;;;19.57;15.37;;;8.20;95.60;;;;;;5036507;28;20036;-69
2023/03/21 06:00:56;;;;;;;20.67;14.47;;;8.30;95.90;;;;;;5036202;28;20037;-69
2023/03/21 06:03:22;;;;;;;19.67;14.20;;;8.30;95.70;;;;;;5036124;28;20046;-69
2023/03/21 06:05:48;;;;;;;17.43;13.87;;;8.30;95.80;;;;;;5036034;28;20048;-70
2023/03/21 06:08:14;;;;;;;16.50;14.10;;;8.30;95.80;;;;;;5036089;28;20068;-69
2023/03/21 06:10:40;;;;;;;20.30;14.97;;;8.30;95.90;;;;;;5035985;28;20037;-69
2023/03/21 06:13:05;;;;;;;26.00;15.53;;;8.30;96.00;;;;;;5035880;28;20076;-69
2023/03/21 06:15:31;;;;;;;21.17;15.10;;;8.30;96.20;;;;;;5035987;28;20036;-68
2023/03/21 06:17:57;;;;;;;21.80;15.87;;;8.40;96.30;;;;;;5035492;28;20034;-68
2023/03/21 06:20:23;;;;;;;20.53;15.30;;;8.40;96.40;;;;;;5034542;28;20052;-69
2023/03/21 06:22:49;;;;;;;19.00;15.77;;;8.40;96.70;;;;;;5035507;28;20068;-68
2023/03/21 06:25:14;;;;;;;19.37;16.10;;;8.40;96.90;;;;;;5035364;28;20064;-68
2023/03/21 06:27:40;;;;;;;22.93;17.50;;;8.50;97.00;;;;;;5035495;28;20505;-68
2023/03/21 06:30:07;;;;;;;23.50;18.37;;;8.60;97.20;;;;;;5035587;28;20038;-68
2023/03/21 06:32:33;;;;;;;23.47;17.30;;;8.60;97.40;;;;;;5035576;28;20033;-68
2023/03/21 06:34:59;;;;;;;23.07;17.57;;;8.60;97.50;;;;;;5035110;28;20144;-68
2023/03/21 06:37:25;;;;;;;29.17;17.43;;;8.70;97.50;;;;;;5035012;28;20489;-68
2023/03/21 06:39:52;;;;;;;23.47;19.70;;;8.80;97.50;;;;;;5034946;28;20065;-68
2023/03/21 06:42:17;;;;;;;25.80;18.43;;;8.80;97.90;;;;;;5034771;28;20112;-68
2023/03/21 06:44:43;;;;;;;30.87;21.07;;;8.80;97.70;;;;;;5034929;28;20080;-68
2023/03/21 06:47:09;;;;;;;33.03;21.20;;;8.90;97.90;;;;;;5034751;28;20045;-68
2023/03/21 06:49:35;;;;;;;27.03;21.53;;;8.90;97.90;;;;;;5034875;28;20040;-68
2023/03/21 06:52:00;;;;;;;34.50;22.47;;;9.00;98.00;;;;;;5034797;28;20030;-68
2023/03/21 06:54:26;;;;;;;30.53;21.03;;;9.10;98.10;;;;;;5034776;28;20045;-68
2023/03/21 06:56:53;;;;;;;30.23;21.37;;;9.20;98.20;;;;;;5031699;28;20087;-67
2023/03/21 06:59:19;;;;;;;25.77;20.87;;;9.20;98.40;;;;;;5034152;28;20030;-67
2023/03/21 07:01:45;;;;;;;87.20;22.33;;;9.30;98.50;;;;;;5034231;28;20033;-67
2023/03/21 07:04:11;;;;;;;30.30;18.40;;;9.30;98.60;;;;;;5033717;28;20397;-71
2023/03/21 07:06:37;;;;;;;24.33;18.27;;;9.40;98.70;;;;;;5034001;28;20052;-67
2023/03/21 07:09:04;;;;;;;20.77;13.20;;;9.50;98.80;;;;;;5034098;28;20132;-66
2023/03/21 07:11:30;;;;;;;38.53;14.40;;;9.60;98.90;;;;;;5034504;28;20034;-67
2023/03/21 07:13:56;;;;;;;21.03;11.60;;;9.70;98.80;;;;;;5034205;28;20104;-66
2023/03/21 07:16:23;;;;;;;22.23;12.70;;;9.80;98.50;;;;;;5032222;28;20125;-66
2023/03/21 07:18:50;;;;;;;21.80;14.40;;;9.80;98.30;;;;;;5034019;28;20065;-67
2023/03/21 07:21:16;;;;;;;30.10;14.97;;;9.90;98.10;;;;;;5016091;28;20036;-66
2023/03/21 07:23:42;;;;;;;22.60;15.17;;;10.00;98.00;;;;;;5033986;28;20044;-67
2023/03/21 07:26:09;;;;;;;23.17;15.60;;;10.00;97.90;;;;;;5033811;28;20514;-67
2023/03/21 07:28:35;;;;;;;19.17;13.87;;;10.20;97.80;;;;;;5033810;28;20047;-66
2023/03/21 07:31:03;;;;;;;20.47;14.13;;;10.20;97.70;;;;;;5033224;28;20112;-68
2023/03/21 07:33:30;;;;;;;16.88;13.98;;;10.30;97.50;;;;;;5033602;28;20056;-68
2023/03/21 07:35:56;;;;;;;18.97;12.93;;;10.40;97.50;;;;;;5033622;28;20473;-67
2023/03/21 07:38:23;;;;;;;19.97;12.90;;;10.50;97.40;;;;;;5033636;28;20052;-68
2023/03/21 07:40:49;;;;;;;16.70;11.43;;;10.60;97.40;;;;;;5033569;28;20041;-69
2023/03/21 07:43:16;;;;;;;20.27;12.88;;;10.60;97.30;;;;;;5033664;28;20079;-68
2023/03/21 07:45:43;;;;;;;17.73;12.52;;;10.70;97.00;;;;;;5033512;28;20037;-68
2023/03/21 07:48:12;;;;;;;14.40;10.80;;;10.80;96.90;;;;;;5015355;28;20088;-68
2023/03/21 07:50:40;;;;;;;16.58;10.82;;;10.90;97.10;;;;;;5033016;28;20140;-69
2023/03/21 07:53:06;;;;;;;14.23;10.35;;;10.90;96.70;;;;;;5033139;28;20040;-71
2023/03/21 07:55:34;;;;;;;11.93;10.10;;;11.00;96.50;;;;;;5033468;28;20038;-67
2023/03/21 07:58:04;;;;;;;22.15;10.25;;;11.10;96.20;;;;;;5033214;28;20045;-67
2023/03/21 08:00:30;;;;;;;22.10;10.20;;;11.20;96.10;;;;;;5033057;28;20148;-67
2023/03/21 08:02:57;;;;;;;11.98;9.85;;;11.30;96.10;;;;;;5033080;28;20044;-67
2023/03/21 08:05:28;;;;;;;14.00;9.00;;;11.30;96.00;;;;;;5034307;28;20133;-70
2023/03/21 08:07:55;;;;;;;32.78;11.65;;;11.40;95.80;;;;;;5033054;28;20088;-67
2023/03/21 08:10:21;;;;;;;19.80;12.00;;;11.60;95.60;;;;;;5032838;28;20043;-67
2023/03/21 08:12:46;;;;;;;17.27;11.60;;;11.60;95.50;;;;;;5033036;28;20109;-67
2023/03/21 08:15:13;;;;;;;15.35;11.93;;;11.70;95.40;;;;;;5032729;28;20029;-67
2023/03/21 08:17:40;;;;;;;17.50;12.18;;;11.80;95.60;;;;;;5032953;28;20065;-67
2023/03/21 08:20:07;;;;;;;17.45;12.30;;;11.90;95.50;;;;;;5032895;28;20072;-67
2023/03/21 08:22:34;;;;;;;21.70;14.20;;;12.00;95.50;;;;;;5033406;28;20068;-67
2023/03/21 08:25:02;;;;;;;18.98;12.90;;;12.10;95.10;;;;;;5033038;28;20065;-68
2023/03/21 08:27:28;;;;;;;24.33;12.63;;;12.10;95.00;;;;;;5033058;28;20532;-68
2023/03/21 08:29:54;;;;;;;14.90;11.05;;;12.20;95.10;;;;;;5033309;28;20064;-67
2023/03/21 08:32:24;;;;;;;15.98;9.80;;;12.20;95.10;;;;;;5033038;28;20040;-68
2023/03/21 08:34:51;;;;;;;16.10;10.43;;;12.30;95.10;;;;;;5015372;28;20030;-67
2023/03/21 08:37:16;;;;;;;14.07;10.77;;;12.40;94.90;;;;;;5033084;28;20034;-69
2023/03/21 08:39:42;;;;;;;11.48;7.80;;;12.50;94.50;;;;;;5033004;28;20029;-68
2023/03/21 08:42:08;;;;;;;13.30;7.45;;;12.60;94.30;;;;;;5032965;28;20033;-68
2023/03/21 08:44:34;;;;;;;15.63;7.20;;;12.70;93.60;;;;;;5032927;28;20052;-68
2023/03/21 08:47:00;;;;;;;12.68;5.28;;;12.80;93.30;;;;;;5032960;28;20069;-68
2023/03/21 08:49:26;;;;;;;12.77;6.18;;;12.80;92.80;;;;;;5032811;28;20048;-68
2023/03/21 08:51:55;;;;;;;10.95;4.97;;;12.90;92.10;;;;;;5032973;28;20033;-68
2023/03/21 08:54:21;;;;;;;12.80;5.22;;;13.00;91.90;;;;;;5032184;28;20535;-68
2023/03/21 08:56:47;;;;;;;8.02;5.40;;;13.10;91.50;;;;;;5031983;28;20029;-68
2023/03/21 08:59:14;;;;;;;8.80;4.53;;;13.20;91.40;;;;;;5031714;28;20105;-67
2023/03/21 09:01:40;;;;;;;11.35;4.82;;;13.30;90.90;;;;;;5032526;28;20040;-67
2023/03/21 09:04:09;;;;;;;9.32;6.43;;;13.40;90.50;;;;;;5030287;28;20033;-68
2023/03/21 09:06:36;;;;;;;12.65;5.65;;;13.50;90.40;;;;;;5031559;28;20034;-68
2023/03/21 09:09:04;;;;;;;9.10;5.70;;;13.60;90.00;;;;;;5032686;28;20046;-68
2023/03/21 09:11:30;;;;;;;8.10;5.40;;;13.70;89.50;;;;;;5032645;28;20107;-68
2023/03/21 09:13:56;;;;;;;11.57;5.22;;;13.80;89.10;;;;;;5032748;28;20045;-68
2023/03/21 09:16:23;;;;;;;8.40;4.90;;;13.90;88.50;;;;;;5032754;28;20033;-68
2023/03/21 09:18:54;;;;;;;11.48;5.65;;;14.00;87.90;;;;;;5031745;28;20037;-68
2023/03/21 09:21:21;;;;;;;11.98;5.47;;;14.00;87.10;;;;;;5036041;28;20037;-68
2023/03/21 09:23:50;;;;;;;9.23;6.03;;;14.10;87.60;;;;;;5036530;28;20390;-68
2023/03/21 09:26:16;;;;;;;12.25;5.45;;;14.20;87.80;;;;;;5036431;28;20034;-67
2023/03/21 09:28:42;;;;;;;10.07;5.45;;;14.30;86.90;;;;;;5036317;28;20141;-67
2023/03/21 09:31:11;;;;;;;9.82;5.28;;;14.40;87.00;;;;;;5036662;28;20116;-68
2023/03/21 09:33:39;;;;;;;13.02;6.22;;;14.50;86.80;;;;;;5036778;28;20087;-68
2023/03/21 09:36:10;;;;;;;9.85;6.25;;;14.60;86.80;;;;;;5036810;28;20033;-68
2023/03/21 09:38:39;;;;;;;9.15;5.45;;;14.70;87.10;;;;;;5036470;28;20442;-68
2023/03/21 09:41:08;;;;;;;9.13;4.88;;;14.80;86.10;;;;;;5036470;28;20025;-68
2023/03/21 09:44:02;;;;;;;7.88;4.28;;;14.90;85.30;;;;;;5036362;28;20108;-68
2023/03/21 09:46:54;;;;;;;9.60;5.45;;;14.90;84.60;;;;;;5036186;28;20464;-68
2023/03/21 09:49:31;;;;;;;9.63;5.03;;;15.10;85.40;;;;;;5036211;28;20371;-67
2023/03/21 09:52:08;;;;;;;10.40;4.57;;;15.20;83.90;;;;;;5036255;28;20041;-68
2023/03/21 09:54:43;;;;;;;7.93;4.72;;;15.30;83.50;;;;;;5036189;28;20474;-68
2023/03/21 09:57:22;;;;;;;6.22;4.45;;;15.30;83.40;;;;;;5018423;28;20040;-68
2023/03/21 09:59:52;;;;;;;9.13;4.43;;;15.50;83.50;;;;;;5018490;28;20038;-68
2023/03/21 10:02:39;;;;;;;6.63;3.38;;;15.60;82.00;;;;;;5036425;28;20160;-68
2023/03/21 10:05:17;;;;;;;6.60;3.28;;;15.70;79.90;;;;;;5035776;28;20473;-69
2023/03/21 10:07:54;;;;;;;8.48;3.33;;;15.80;75.10;;;;;;5035704;28;20037;-69
2023/03/21 10:10:31;;;;;;;4.65;3.65;;;15.90;75.30;;;;;;5035840;28;20030;-68
2023/03/21 10:12:56;;;;;;;6.90;4.22;;;16.00;74.80;;;;;;5018021;28;20529;-68
2023/03/21 10:15:25;;;;;;;7.13;3.30;;;16.00;74.10;;;;;;5035868;28;20131;-68
2023/03/21 10:17:56;;;;;;;5.03;2.72;;;16.20;72.90;;;;;;5035823;28;20033;-68
2023/03/21 10:20:34;;;;;;;7.95;3.00;;;16.20;71.90;;;;;;5035961;28;20033;-68
2023/03/21 10:23:04;;;;;;;8.82;2.78;;;16.30;71.90;;;;;;5035770;28;20064;-68
2023/03/21 10:25:36;;;;;;;7.85;3.10;;;16.40;70.40;;;;;;5035691;28;20045;-68
2023/03/21 10:28:06;;;;;;;3.88;2.60;;;16.50;69.30;;;;;;5035581;28;20052;-68
2023/03/21 10:30:41;;;;;;;5.50;2.90;;;16.60;68.00;;;;;;5035336;28;20094;-68
2023/03/21 10:33:13;;;;;;;4.93;2.90;;;16.80;68.40;;;;;;5035884;28;20037;-68
2023/03/21 10:35:42;;;;;;;5.32;2.90;;;16.70;66.20;;;;;;5035513;28;20033;-69
2023/03/21 10:38:15;;;;;;;8.68;2.65;;;16.80;66.30;;;;;;5035439;28;20120;-69
2023/03/21 10:40:41;;;;;;;4.80;3.38;;;16.90;65.80;;;;;;5035369;28;20029;-69
2023/03/21 10:43:25;;;;;;;8.95;2.72;;;17.00;65.70;;;;;;5035580;28;20037;-69
2023/03/21 10:45:51;;;;;;;7.07;2.83;;;17.10;64.80;;;;;;5035073;28;20038;-66
2023/03/21 10:48:17;;;;;;;6.13;3.03;;;17.20;63.90;;;;;;5035312;28;20398;-66
2023/03/21 10:50:46;;;;;;;4.93;2.97;;;17.30;64.80;;;;;;5034975;28;20033;-66
2023/03/21 10:53:26;;;;;;;6.22;2.85;;;17.40;65.10;;;;;;5035045;28;20052;-68
2023/03/21 10:55:54;;;;;;;5.13;2.72;;;17.50;64.60;;;;;;5035185;28;20139;-68
2023/03/21 10:58:26;;;;;;;7.57;2.70;;;17.60;63.80;;;;;;5035165;28;20540;-68
2023/03/21 11:01:02;;;;;;;3.50;2.53;;;17.60;63.30;;;;;;5035143;28;20030;-68
2023/03/21 11:03:35;;;;;;;3.95;2.60;;;17.70;62.30;;;;;;5035043;28;20037;-68
2023/03/21 11:06:13;;;;;;;6.20;2.72;;;17.80;61.20;;;;;;5034866;28;20100;-68
2023/03/21 11:08:46;;;;;;;5.35;3.03;;;17.90;61.70;;;;;;5034736;28;20080;-68
2023/03/21 11:11:20;;;;;;;10.45;2.80;;;18.00;62.60;;;;;;5034850;28;20036;-68
2023/03/21 11:13:54;;;;;;;5.13;2.60;;;18.10;62.00;;;;;;5034638;28;20041;-68
2023/03/21 11:16:34;;;;;;;5.95;2.90;;;18.20;61.60;;;;;;5034786;28;20033;-68
2023/03/21 11:19:11;;;;;;;6.05;2.45;;;18.30;61.40;;;;;;5034572;28;20439;-68
2023/03/21 11:21:38;;;;;;;4.40;2.65;;;18.40;60.80;;;;;;5034755;28;20397;-68
2023/03/21 11:24:05;;;;;;;5.43;3.10;;;18.50;59.00;;;;;;5034695;28;20140;-68
2023/03/21 11:26:36;;;;;;;3.92;2.35;;;18.60;58.80;;;;;;5034426;28;20040;-68
2023/03/21 11:29:22;;;;;;;4.50;2.20;;;18.70;59.00;;;;;;5034433;28;20037;-68
2023/03/21 11:31:48;;;;;;;4.22;2.20;;;18.80;58.70;;;;;;5034500;28;20033;-68
2023/03/21 11:34:27;;;;;;;3.30;1.88;;;18.80;57.90;;;;;;5034563;28;20025;-69
2023/03/21 11:36:58;;;;;;;3.40;1.98;;;18.90;58.10;;;;;;5034651;28;20381;-68
2023/03/21 11:39:36;;;;;;;3.90;1.80;;;19.00;57.30;;;;;;5034182;28;20489;-68
2023/03/21 11:42:02;;;;;;;6.07;2.53;;;19.10;55.70;;;;;;5033636;28;20045;-68
2023/03/21 11:44:29;;;;;;;3.65;1.70;;;19.20;55.40;;;;;;5034361;28;20478;-68
2023/03/21 11:46:55;;;;;;;2.80;1.70;;;19.30;54.80;;;;;;5034176;28;20041;-68
2023/03/21 11:49:22;;;;;;;4.97;1.90;;;19.30;55.00;;;;;;5034117;28;20493;-68
2023/03/21 11:52:42;;;;;;;3.17;1.83;;;19.40;54.70;;;;;;5034171;28;20474;-69
2023/03/21 11:55:30;;;;;;;8.57;2.30;;;19.50;53.80;;;;;;4953580;29;20066;-68
2023/03/21 11:58:24;;;;;;;5.25;2.00;;;19.70;52.20;;;;;;4953594;29;20110;-68
2023/03/21 12:00:59;;;;;;;3.28;1.88;;;19.70;53.20;;;;;;5027860;28;20116;-68
2023/03/21 12:03:51;;;;;;;3.47;1.80;;;19.80;52.70;;;;;;5033789;28;20038;-68
2023/03/21 12:06:27;;;;;;;3.45;1.90;;;19.90;52.70;;;;;;5003330;28;20108;-68
2023/03/21 12:09:15;;;;;;;4.68;1.88;;;20.00;49.90;;;;;;5033645;28;20054;-69
2023/03/21 12:11:47;;;;;;;4.53;1.75;;;20.00;51.10;;;;;;5023311;28;20398;-68
2023/03/21 12:14:27;;;;;;;5.15;2.15;;;20.10;51.70;;;;;;5033516;28;20485;-68
2023/03/21 12:17:32;;;;;;;5.50;2.20;;;20.20;52.40;;;;;;5015516;28;20034;-69
2023/03/21 12:20:19;;;;;;;3.47;1.92;;;20.30;53.70;;;;;;5032251;28;20037;-68
2023/03/21 12:23:06;;;;;;;5.05;1.90;;;20.40;53.90;;;;;;5015784;28;20416;-69
2023/03/21 12:25:41;;;;;;;6.82;2.30;;;20.50;53.40;;;;;;4988178;28;20121;-69
2023/03/21 12:28:25;;;;;;;5.45;1.95;;;20.60;51.90;;;;;;5005502;28;20050;-68
2023/03/21 12:31:18;;;;;;;3.45;1.90;;;20.70;51.40;;;;;;5013312;28;20034;-68
2023/03/21 12:34:10;;;;;;;3.38;1.90;;;20.70;52.40;;;;;;5013500;28;20026;-68
2023/03/21 12:37:02;;;;;;;3.75;2.13;;;20.80;51.10;;;;;;5013570;28;20541;-68
2023/03/21 12:39:36;;;;;;;5.45;2.22;;;20.80;51.20;;;;;;5013292;28;20116;-68
2023/03/21 12:42:07;;;;;;;4.88;2.38;;;20.90;51.80;;;;;;5013621;28;20030;-68
2023/03/21 12:44:40;;;;;;;6.72;1.75;;;21.00;52.10;;;;;;5013358;28;20033;-68
2023/03/21 12:47:14;;;;;;;4.47;2.20;;;21.00;52.10;;;;;;5012947;28;20101;-69
2023/03/21 12:49:59;;;;;;;3.63;1.98;;;21.10;51.20;;;;;;4995668;28;20042;-68
2023/03/21 12:52:39;;;;;;;3.75;1.90;;;21.20;50.90;;;;;;5013064;28;20033;-68
2023/03/21 12:55:16;;;;;;;3.65;1.63;;;21.30;51.20;;;;;;5030053;28;20091;-72
2023/03/21 12:57:52;;;;;;;5.63;1.83;;;21.30;50.10;;;;;;5031157;28;20033;-68
2023/03/21 13:00:21;;;;;;;5.95;1.75;;;21.30;49.30;;;;;;5032597;28;20398;-69